Latest Coastal Weather Observations for Low Rocky Point

IDT60701

Issued at 1:41 pm EST Friday 4 September 2015 (issued every 10 minutes, with the page automatically refreshed every 10 minutes)

About coastal observations | Map of coastal stations | Coastal observations for TAS | Marine services | Other Formats
Station Details ID: 097080 Name: LOW ROCKY POINT Lat: -42.98 Lon: 145.50 Height: 34.0 m
Data from the previous 72 hours. | See also: Recent months at Low Rocky Point
Date/Time
EST
Temp

°C
Wind Pressure Rain
since 9am
mm
Weather Cloud Vis
km
Sea
Height
m
Swell
Dir
 
Speed
knots
Gust
knots
hPa Trend Height
m
Period
s
Dir
04/01:30pm 10.7 WNW 25 29 1018.0 - 0.6 - - - - - - -
04/01:00pm 9.9 WNW 23 29 1018.2 - 0.6 - - - - - - -
04/12:30pm 10.0 WNW 20 24 1018.6 - 0.6 - - - - - - -
04/12:00pm 10.6 NW 21 27 1018.8 - 0.2 - - - - - - -
04/11:30am 10.5 NW 23 28 1019.0 - 0.2 - - - - - - -
04/11:00am 9.7 NW 22 27 1019.4 - 0.2 Recent precip. - - - - - -
04/10:30am 9.3 NW 22 27 1019.6 - 0.2 - - - - - - -
04/10:00am 9.2 WNW 23 31 1019.6 - 0.0 - - - - - - -
04/09:30am 9.6 NW 22 27 1019.8 - 0.0 - - - - - - -
04/09:00am 9.6 WNW 23 28 1019.9 - 0.6 - - - - - - -
04/08:30am 9.1 WNW 24 28 1019.8 - 0.6 - - - - - - -
04/08:00am 8.4 NW 18 23 1020.1 - 0.6 Recent precip. - - - - - -
04/07:30am 7.4 NNW 13 17 1019.9 - 0.2 - - - - - - -
04/07:22am 7.3 NNW 15 25 1020.1 - 0.2 - - - - - - -
04/07:00am 7.2 NNW 18 25 1019.8 - 0.2 Recent precip. - - - - - -
04/06:30am 6.7 N 14 21 1019.7 - 0.0 - - - - - - -
04/06:00am 6.8 N 11 15 1019.7 - 0.0 - - - - - - -
04/05:30am 6.7 N 13 25 1019.9 - 0.0 - - - - - - -
04/05:27am 7.2 NNW 15 25 1019.9 - 0.0 - - - - - - -
04/05:00am 8.6 NW 21 25 1019.7 - 0.0 - - - - - - -
04/04:30am 8.6 NW 20 25 1019.7 - 0.0 - - - - - - -
04/04:00am 8.9 NW 20 25 1019.8 - 0.0 - - - - - - -
04/03:30am 8.7 NW 18 23 1020.1 - 0.0 - - - - - - -
04/03:00am 8.5 NW 19 23 1020.4 - 0.0 - - - - - - -
04/02:30am 8.7 NW 19 24 1020.5 - 0.0 - - - - - - -
04/02:00am 8.8 WNW 17 22 1020.9 - 0.0 - - - - - - -
04/01:30am 8.7 NW 16 21 1021.0 - 0.0 - - - - - - -
04/01:00am 8.7 NW 13 17 1021.3 - 0.0 - - - - - - -
04/12:30am 8.4 NW 13 17 1021.5 - 0.0 - - - - - - -
04/12:00am 8.4 WNW 13 16 1021.6 - 0.0 - - - - - - -
 
Date/Time
EST
Temp

°C
Wind Pressure Rain
since 9am
mm
Weather Cloud Vis
km
Sea
Height
m
Swell
Dir
 
Speed
knots
Gust
knots
hPa Trend Height
m
Period
s
Dir
03/11:30pm 8.2 WNW 15 18 1021.7 - 0.0 - - - - - - -
03/11:00pm 8.0 WNW 14 16 1021.8 - 0.0 - - - - - - -
03/10:30pm 7.8 WNW 12 15 1021.9 - 0.0 - - - - - - -
03/10:00pm 7.8 WNW 11 15 1021.8 - 0.0 - - - - - - -
03/09:30pm 7.5 WNW 11 14 1021.7 - 0.0 - - - - - - -
03/09:00pm 7.2 WNW 10 14 1021.5 - 0.0 - - - - - - -
03/08:30pm 7.3 W 9 11 1021.3 - 0.0 - - - - - - -
03/08:00pm 7.5 WSW 8 13 1021.0 - 0.0 - - - - - - -
03/07:30pm 7.9 SW 9 14 1020.9 - 0.0 - - - - - - -
03/07:00pm 7.5 WSW 4 5 1020.9 - 0.0 - - - - - - -
03/06:30pm 7.7 WSW 8 11 1020.8 - 0.0 - - - - - - -
03/06:00pm 7.8 SW 10 14 1020.3 - 0.0 - - - - - - -
03/05:30pm 8.3 SW 8 11 1020.0 - 0.0 - - - - - - -
03/05:00pm 8.3 S 7 9 1019.6 - 0.0 - - - - - - -
03/04:30pm 8.7 S 10 14 1019.1 - 0.0 - - - - - - -
03/04:00pm 9.6 S 7 9 1018.8 - 0.0 - - - - - - -
03/03:30pm 10.5 SSW 9 11 1018.6 - 0.0 - - - - - - -
03/03:00pm 10.5 S 9 13 1018.3 - 0.0 - - - - - - -
03/02:30pm 10.5 S 11 15 1018.1 - 0.0 - - - - - - -
03/02:00pm 10.7 SSW 12 16 1018.1 - 0.0 - - - - - - -
03/01:30pm 10.8 SSW 13 18 1018.1 - 0.0 - - - - - - -
03/01:00pm 11.4 S 12 17 1018.0 - 0.0 - - - - - - -
03/12:30pm 11.4 S 13 17 1018.0 - 0.0 - - - - - - -
03/12:00pm 11.2 SSE 12 18 1017.8 - 0.0 - - - - - - -
03/11:30am 10.9 S 13 17 1017.8 - 0.0 - - - - - - -
03/11:00am 10.5 S 14 19 1017.4 - 0.0 - - - - - - -
03/10:30am 11.1 S 14 20 1017.0 - 0.0 - - - - - - -
03/10:00am 10.0 S 15 19 1016.5 - 0.0 - - - - - - -
03/09:30am 9.8 SSE 16 24 1016.0 - 0.0 - - - - - - -
03/09:00am 9.1 S 16 21 1015.5 - 7.8 - - - - - - -
03/08:30am 8.9 S 15 19 1015.2 - 7.8 - - - - - - -
03/08:00am 8.2 S 17 21 1014.6 - 7.8 - - - - - - -
03/07:30am 7.7 S 18 23 1014.0 - 7.8 - - - - - - -
03/07:00am 7.7 S 16 21 1013.5 - 7.8 - - - - - - -
03/06:30am 7.8 S 17 22 1013.0 - 7.8 - - - - - - -
03/06:05am 8.0 S 16 27 1012.6 - 7.8 - - - - - - -
03/06:00am 7.8 S 14 19 1012.4 - 7.8 - - - - - - -
03/05:42am 8.2 S 15 25 1012.3 - 7.8 - - - - - - -
03/05:30am 7.8 S 16 23 1012.1 - 7.8 - - - - - - -
03/05:00am 8.2 S 15 20 1011.6 - 7.8 - - - - - - -
03/04:30am 8.3 S 14 19 1011.3 - 7.8 - - - - - - -
03/04:00am 8.5 S 13 17 1011.0 - 7.8 Recent precip. - - - - - -
03/03:30am 8.3 SW 7 9 1011.0 - 7.8 - - - - - - -
03/03:00am 7.9 SSW 5 7 1010.7 - 7.2 Recent precip. - - - - - -
03/02:30am 7.9 SSW 5 7 1011.0 - 7.2 - - - - - - -
03/02:00am 7.6 SSW 10 14 1011.1 - 6.8 Recent precip. - - - - - -
03/01:30am 7.7 SSW 11 16 1011.1 - 6.8 - - - - - - -
03/01:00am 7.6 SSW 13 20 1010.8 - 6.4 Rain - - - - - -
03/12:30am 8.3 SSW 10 15 1010.5 - 5.4 - - - - - - -
03/12:00am 8.2 SSW 13 17 1010.2 - 4.8 Rain - - - - - -
 
Date/Time
EST
Temp

°C
Wind Pressure Rain
since 9am
mm
Weather Cloud Vis
km
Sea
Height
m
Swell
Dir
 
Speed
knots
Gust
knots
hPa Trend Height
m
Period
s
Dir
02/11:30pm 8.8 SSW 13 18 1010.0 - 3.6 - - - - - - -
02/11:00pm 9.4 WNW 11 16 1009.9 - 2.0 Rain - - - - - -
02/10:30pm 9.4 NNW 10 12 1009.6 - 1.8 - - - - - - -
02/10:00pm 9.0 NNW 8 10 1009.5 - 1.6 - - - - - - -
02/09:30pm 8.6 N 7 8 1009.6 - 1.6 - - - - - - -
02/09:00pm 8.6 N 7 8 1009.3 - 1.6 Recent precip. - - - - - -
02/08:30pm 8.9 NE 4 5 1009.5 - 1.4 - - - - - - -
02/08:00pm 9.0 CALM 0 3 1009.5 - 1.0 - - - - - - -
02/07:30pm 8.9 E 4 5 1009.3 - 1.0 - - - - - - -
02/07:00pm 8.9 SE 5 5 1009.1 - 0.4 - - - - - - -
02/06:30pm 8.9 SE 5 5 1008.9 - 0.4 - - - - - - -
02/06:00pm 9.0 SE 5 6 1008.7 - 0.4 - - - - - - -
02/05:30pm 9.3 SE 4 5 1008.6 - 0.4 - - - - - - -
02/05:00pm 9.6 SSE 4 5 1008.5 - 0.4 - - - - - - -
02/04:30pm 9.7 SE 4 5 1008.8 - 0.4 - - - - - - -
02/04:00pm 9.8 ESE 4 5 1008.7 - 0.4 Recent precip. - - - - - -
02/03:30pm 9.6 E 4 5 1008.9 - 0.4 - - - - - - -
02/03:00pm 9.5 N 1 4 1008.9 - 0.2 - - - - - - -
02/02:30pm 9.2 NNW 2 4 1009.3 - 0.2 - - - - - - -
02/02:00pm 9.2 NW 5 6 1009.3 - 0.2 - - - - - - -
02/01:30pm 9.1 NW 6 8 1009.5 - 0.2 - - - - - - -
02/01:00pm 8.8 NW 7 9 1009.9 - 0.2 Recent precip. - - - - - -
02/12:30pm 8.7 NW 9 11 1010.6 - 0.2 - - - - - - -
02/12:00pm 9.6 NNW 7 10 1010.8 - 0.0 - - - - - - -
02/11:30am 9.9 NNW 10 12 1011.3 - 0.0 - - - - - - -
02/11:00am 9.1 NNW 12 15 1011.7 - 0.0 - - - - - - -
02/10:30am 9.1 NNW 13 19 1012.0 - 0.0 - - - - - - -
02/10:00am 9.6 NNW 9 11 1012.0 - 0.0 - - - - - - -
02/09:30am 9.4 NNW 9 13 1012.0 - 0.0 - - - - - - -
02/09:00am 7.9 NNE 10 13 1012.1 - 0.0 - - - - - - -
02/08:30am 6.6 NNE 9 13 1012.2 - 0.0 - - - - - - -
02/08:00am 5.6 NNE 10 13 1012.0 - 0.0 - - - - - - -
02/07:30am 4.8 NNE 12 14 1012.0 - 0.0 - - - - - - -
02/07:00am 4.5 NNE 12 14 1011.8 - 0.0 - - - - - - -
02/06:30am 4.7 NNE 11 13 1011.9 - 0.0 - - - - - - -
02/06:00am 4.6 NNE 11 12 1011.7 - 0.0 - - - - - - -
02/05:30am 4.5 NNE 10 12 1011.9 - 0.0 - - - - - - -
02/05:00am 5.1 NNE 9 10 1012.0 - 0.0 - - - - - - -
02/04:30am 5.8 N 9 10 1012.2 - 0.0 - - - - - - -
02/04:00am 5.9 N 9 10 1012.1 - 0.0 - - - - - - -
02/03:30am 6.1 NNE 9 10 1012.1 - 0.0 - - - - - - -
02/03:00am 6.2 NNE 9 10 1012.2 - 0.0 - - - - - - -
02/02:30am 6.2 NNE 9 11 1012.6 - 0.0 - - - - - - -
02/02:00am 6.5 NE 8 11 1012.9 - 0.0 - - - - - - -
02/01:30am 7.2 NNE 7 9 1013.4 - 0.0 - - - - - - -
02/01:00am 7.6 NNE 7 9 1013.5 - 0.0 - - - - - - -
02/12:30am 7.8 N 5 6 1013.7 - 0.0 - - - - - - -
02/12:00am 7.9 N 7 7 1013.7 - 0.0 - - - - - - -
 
Date/Time
EST
Temp

°C
Wind Pressure Rain
since 9am
mm
Weather Cloud Vis
km
Sea
Height
m
Swell
Dir
 
Speed
knots
Gust
knots
hPa Trend Height
m
Period
s
Dir
01/11:30pm 7.9 N 6 7 1013.9 - 0.0 - - - - - - -
01/11:00pm 8.0 N 7 8 1013.9 - 0.0 - - - - - - -
01/10:30pm 7.7 NNE 7 8 1014.0 - 0.0 - - - - - - -
01/10:00pm 7.6 NNE 7 8 1014.0 - 0.0 - - - - - - -
01/09:30pm 7.4 NNE 6 7 1014.2 - 0.0 - - - - - - -
01/09:00pm 7.0 ENE 5 6 1014.1 - 0.0 - - - - - - -
01/08:30pm 6.2 E 5 7 1013.8 - 0.0 - - - - - - -
01/08:00pm 6.5 E 5 5 1013.6 - 0.0 - - - - - - -
01/07:30pm 7.9 SE 3 4 1013.6 - 0.0 - - - - - - -
01/07:00pm 7.1 SE 5 6 1013.6 - 0.0 - - - - - - -
01/06:30pm 7.5 SSE 5 6 1013.8 - 0.0 - - - - - - -
01/06:00pm 8.2 SSE 5 6 1013.4 - 0.0 - - - - - - -
01/05:30pm 9.3 SSE 5 7 1013.3 - 0.0 - - - - - - -
01/05:00pm 9.9 S 4 5 1013.2 - 0.0 - - - - - - -
01/04:30pm 11.1 S 5 6 1013.4 - 0.0 - - - - - - -
01/04:00pm 11.1 WSW 5 6 1013.7 - 0.0 - - - - - - -
01/03:30pm 11.3 W 5 7 1014.3 - 0.0 - - - - - - -
01/03:00pm 12.2 WSW 5 7 1014.1 - 0.0 - - - - - - -
01/02:30pm 11.2 WSW 6 9 1014.5 - 0.0 - - - - - - -
01/02:00pm 11.8 W 8 10 1014.3 - 0.0 - - - - - - -

Other Formats:

Comma delimited format used in spreadsheet applications
http://www.bom.gov.au/fwo/IDT60701/IDT60701.95961.axf

JavaScript Object Notation format (JSON) in row-major order
http://www.bom.gov.au/fwo/IDT60701/IDT60701.95961.json